More Magic — 2DWJ4 — position and weather

sailwx.info

Track history (hours):
 
Tides and Currents Weather Stations Pressure Air Temp Water Temp Dewpoint Dewpoint Depression Visibility Wind Speed Wind Dir Waves Ship Positions

More Magic

Last reported at 2015-Feb-26 13:11 UTC. Time now 2015-Feb-27 00:26 UTC.
Position N 18°26' W 064°27'.

Length 20 m.

Type: Sailing vessel. MMSI: 235082545.

Date/timePositionNaut miles runAvg speedWind from/ knotsBaromVisibWave heightAir tempDewpointWater temp
2015-Feb-26 13:11N 18°26' W 064°27'0 0.0
2015-Feb-26 12:17N 18°26' W 064°27'0 0.0
2015-Feb-26 11:05N 18°26' W 064°27'0 0.0
2015-Feb-26 10:29N 18°26' W 064°27'0 0.0
2015-Feb-26 04:23N 18°26' W 064°27'0 0.0
2015-Feb-26 03:17N 18°26' W 064°27'0 0.0
2015-Feb-26 02:29N 18°26' W 064°27'0 0.0
2015-Feb-26 01:05N 18°26' W 064°27'0 0.0
2015-Feb-26 00:29N 18°26' W 064°27'0 0.0
2015-Feb-25 23:23N 18°26' W 064°27'0 0.0
2015-Feb-25 22:11N 18°26' W 064°27'10 0.4
2015-Feb-24 20:19N 18°35' W 064°32'12 2.0
2015-Feb-24 14:20N 18°28' W 064°42'4 4.9
2015-Feb-24 13:30N 18°26' W 064°46'0 0.0
2015-Feb-24 12:30N 18°26' W 064°46'0 0.0
2015-Feb-24 11:24N 18°26' W 064°46'0 0.0
2015-Feb-24 10:24N 18°26' W 064°46'0 0.0
2015-Feb-24 09:30N 18°26' W 064°46'0 0.0
2015-Feb-24 08:30N 18°26' W 064°46'0 0.0
2015-Feb-24 07:30N 18°26' W 064°46'0 0.0
2015-Feb-24 06:30N 18°26' W 064°46'0 0.0
2015-Feb-24 05:30N 18°26' W 064°46'0 0.0
2015-Feb-24 04:24N 18°26' W 064°46'0 0.0
2015-Feb-24 03:30N 18°26' W 064°46'0 0.0
2015-Feb-24 02:30N 18°26' W 064°46'0 0.0
2015-Feb-24 01:30N 18°26' W 064°46'0 0.0
2015-Feb-24 00:24N 18°26' W 064°46'0 0.0
2015-Feb-23 23:33N 18°26' W 064°46'0 0.0
2015-Feb-23 22:30N 18°26' W 064°46'0 0.0
2015-Feb-23 21:30N 18°26' W 064°46'2 1.8
2015-Feb-23 20:33N 18°25' W 064°45'2 0.5
2015-Feb-23 15:31N 18°27' W 064°43'3 2.6
2015-Feb-23 14:28N 18°24' W 064°43'6 0.3
2015-Feb-22 14:03N 18°23' W 064°37'3 0.1
2015-Feb-21 18:31N 18°23' W 064°34'2 2.2
2015-Feb-21 17:33N 18°24' W 064°36'  
Track history (hours):
 
Tides and Currents Weather Stations Pressure Air Temp Water Temp Dewpoint Dewpoint Depression Visibility Wind Speed Wind Dir Waves Ship Positions

More Magic

Last reported at 2015-Feb-26 13:11 UTC. Time now 2015-Feb-27 00:26 UTC.
Position N 18°26' W 064°27'.

Length 20 m.

Type: Sailing vessel. MMSI: 235082545.

Date/timePositionNaut miles runAvg speedWind from/ knotsBaromVisibWave heightAir tempDewpointWater temp
2015-Feb-26 13:11N 18°26' W 064°27'0 0.0
2015-Feb-26 12:17N 18°26' W 064°27'0 0.0
2015-Feb-26 11:05N 18°26' W 064°27'0 0.0
2015-Feb-26 10:29N 18°26' W 064°27'0 0.0
2015-Feb-26 04:23N 18°26' W 064°27'0 0.0
2015-Feb-26 03:17N 18°26' W 064°27'0 0.0
2015-Feb-26 02:29N 18°26' W 064°27'0 0.0
2015-Feb-26 01:05N 18°26' W 064°27'0 0.0
2015-Feb-26 00:29N 18°26' W 064°27'0 0.0
2015-Feb-25 23:23N 18°26' W 064°27'0 0.0
2015-Feb-25 22:11N 18°26' W 064°27'10 0.4
2015-Feb-24 20:19N 18°35' W 064°32'12 2.0
2015-Feb-24 14:20N 18°28' W 064°42'4 4.9
2015-Feb-24 13:30N 18°26' W 064°46'0 0.0
2015-Feb-24 12:30N 18°26' W 064°46'0 0.0
2015-Feb-24 11:24N 18°26' W 064°46'0 0.0
2015-Feb-24 10:24N 18°26' W 064°46'0 0.0
2015-Feb-24 09:30N 18°26' W 064°46'0 0.0
2015-Feb-24 08:30N 18°26' W 064°46'0 0.0
2015-Feb-24 07:30N 18°26' W 064°46'0 0.0
2015-Feb-24 06:30N 18°26' W 064°46'0 0.0
2015-Feb-24 05:30N 18°26' W 064°46'0 0.0
2015-Feb-24 04:24N 18°26' W 064°46'0 0.0
2015-Feb-24 03:30N 18°26' W 064°46'0 0.0
2015-Feb-24 02:30N 18°26' W 064°46'0 0.0
2015-Feb-24 01:30N 18°26' W 064°46'0 0.0
2015-Feb-24 00:24N 18°26' W 064°46'0 0.0
2015-Feb-23 23:33N 18°26' W 064°46'0 0.0
2015-Feb-23 22:30N 18°26' W 064°46'0 0.0
2015-Feb-23 21:30N 18°26' W 064°46'2 1.8
2015-Feb-23 20:33N 18°25' W 064°45'2 0.5
2015-Feb-23 15:31N 18°27' W 064°43'3 2.6
2015-Feb-23 14:28N 18°24' W 064°43'6 0.3
2015-Feb-22 14:03N 18°23' W 064°37'3 0.1
2015-Feb-21 18:31N 18°23' W 064°34'2 2.2
2015-Feb-21 17:33N 18°24' W 064°36'  

Dump ship's entire track history